createdAt,value
2019-04-14T00:02:07.437Z,1024.64
2019-04-14T00:07:07.871Z,1024.66
2019-04-14T00:12:09.338Z,1024.74
2019-04-14T00:17:06.942Z,1024.65
2019-04-14T00:22:07.602Z,1024.62
2019-04-14T00:27:06.975Z,1024.67
2019-04-14T00:32:07.661Z,1024.58
2019-04-14T00:37:08.102Z,1024.48
2019-04-14T00:41:07.578Z,1024.53
2019-04-14T00:46:07.863Z,1024.55
2019-04-14T00:51:07.327Z,1024.5
2019-04-14T00:56:06.840Z,1024.54
2019-04-14T01:01:07.358Z,1024.45
2019-04-14T01:06:08.079Z,1024.5
2019-04-14T01:11:07.957Z,1024.42
2019-04-14T01:15:09.664Z,1024.49
2019-04-14T01:16:17.357Z,1024.49
2019-04-14T01:20:08.202Z,1024.49
2019-04-14T01:25:06.792Z,1024.47
2019-04-14T01:30:09.218Z,1024.45
2019-04-14T01:35:07.864Z,1024.5
2019-04-14T01:40:07.866Z,1024.5
2019-04-14T01:45:08.341Z,1024.47
2019-04-14T01:49:07.959Z,1024.45
2019-04-14T01:54:08.446Z,1024.45
2019-04-14T01:59:07.187Z,1024.48
2019-04-14T02:04:07.686Z,1024.5
2019-04-14T02:09:07.902Z,1024.51
2019-04-14T02:14:06.513Z,1024.54
2019-04-14T02:19:07.086Z,1024.52
2019-04-14T02:23:08.591Z,1024.49
2019-04-14T02:28:08.834Z,1024.54
2019-04-14T02:44:11.803Z,1024.51
2019-04-14T02:53:57.359Z,1024.52
2019-04-14T03:03:37.085Z,1024.53
2019-04-14T03:08:15.122Z,1024.6
2019-04-14T03:13:05.348Z,1024.55
2019-04-14T03:33:04.309Z,1024.6
2019-04-14T03:42:00.167Z,1024.55
2019-04-14T03:46:33.090Z,1024.61
2019-04-14T03:52:01.887Z,1024.53
2019-04-14T03:56:09.073Z,1024.59
2019-04-14T04:00:11.621Z,1024.61
2019-04-14T04:05:06.770Z,1024.64
2019-04-14T04:10:09.229Z,1024.64
2019-04-14T04:15:08.360Z,1024.71
2019-04-14T04:20:07.465Z,1024.72
2019-04-14T04:25:09.781Z,1024.67
2019-04-14T04:30:08.460Z,1024.73
2019-04-14T04:35:07.178Z,1024.7
2019-04-14T04:39:08.582Z,1024.73
2019-04-14T04:44:07.860Z,1024.78
2019-04-14T04:49:24.140Z,1024.83
2019-04-14T04:54:08.072Z,1024.79
2019-04-14T04:59:08.221Z,1024.84
2019-04-14T05:04:07.290Z,1024.9
2019-04-14T05:08:09.010Z,1024.84
2019-04-14T05:14:07.178Z,1024.87
2019-04-14T05:18:08.827Z,1024.85
2019-04-14T05:23:08.735Z,1024.96
2019-04-14T05:28:07.652Z,1024.96
2019-04-14T05:33:09.489Z,1024.94
2019-04-14T05:38:06.907Z,1025.09
2019-04-14T05:43:07.438Z,1025.11
2019-04-14T05:48:08.098Z,1025.09
2019-04-14T05:52:07.634Z,1025.11
2019-04-14T05:57:06.970Z,1025.16
2019-04-14T06:02:07.954Z,1025.21
2019-04-14T06:07:07.204Z,1025.19
2019-04-14T06:12:06.700Z,1025.27
2019-04-14T06:16:07.569Z,1025.21
2019-04-14T06:17:06.950Z,1025.21
2019-04-14T06:21:07.113Z,1025.3
2019-04-14T06:26:07.187Z,1025.28
2019-04-14T06:31:09.201Z,1025.35
2019-04-14T06:36:06.392Z,1025.39
2019-04-14T06:41:07.518Z,1025.38
2019-04-14T06:46:06.682Z,1025.34
2019-04-14T06:51:06.815Z,1025.45
2019-04-14T06:55:06.842Z,1025.43
2019-04-14T07:00:09.325Z,1025.46
2019-04-14T07:05:06.836Z,1025.41
2019-04-14T07:10:07.367Z,1025.43
2019-04-14T07:15:09.450Z,1025.45
2019-04-14T07:19:07.429Z,1025.49
2019-04-14T07:20:06.747Z,1025.49
2019-04-14T07:24:06.887Z,1025.44
2019-04-14T07:29:07.354Z,1025.49
2019-04-14T07:34:07.377Z,1025.53
2019-04-14T07:39:06.926Z,1025.53
2019-04-14T07:44:07.124Z,1025.52
2019-04-14T07:49:06.881Z,1025.54
2019-04-14T07:54:06.608Z,1025.63
2019-04-14T07:58:07.073Z,1025.63
2019-04-14T08:03:06.634Z,1025.72
2019-04-14T08:08:06.887Z,1025.74
2019-04-14T08:13:06.561Z,1025.72
2019-04-14T08:18:06.457Z,1025.73
2019-04-14T08:22:07.434Z,1025.85
2019-04-14T08:23:06.401Z,1025.85
2019-04-14T08:27:06.790Z,1025.92
2019-04-14T08:32:06.707Z,1025.93
2019-04-14T08:37:06.914Z,1025.94
2019-04-14T08:42:06.524Z,1025.92
2019-04-14T08:47:06.486Z,1025.94
2019-04-14T08:52:06.525Z,1025.89
2019-04-14T08:56:07.076Z,1025.87
2019-04-14T08:57:07.069Z,1025.87
2019-04-14T09:01:06.896Z,1025.89
2019-04-14T09:06:07.166Z,1025.89
2019-04-14T09:11:06.794Z,1026.02
2019-04-14T09:16:06.765Z,1026.02
2019-04-14T09:21:07.038Z,1026.03
2019-04-14T09:26:07.134Z,1026.06
2019-04-14T09:30:08.282Z,1026.02
2019-04-14T09:35:06.726Z,1025.96
2019-04-14T09:40:06.800Z,1025.94
2019-04-14T09:45:08.171Z,1025.97
2019-04-14T09:50:06.329Z,1025.93
2019-04-14T09:55:06.711Z,1025.96
2019-04-14T10:04:06.543Z,1025.98
2019-04-14T10:09:07.245Z,1026.03
2019-04-14T10:14:06.613Z,1025.99
2019-04-14T10:19:07.161Z,1026.1
2019-04-14T10:24:06.322Z,1026.06
2019-04-14T10:29:06.449Z,1026.13
2019-04-14T10:34:06.483Z,1026.18
2019-04-14T10:38:07.054Z,1026.13
2019-04-14T10:43:06.750Z,1026.17
2019-04-14T10:48:06.662Z,1026.16
2019-04-14T10:53:06.808Z,1026.15
2019-04-14T10:58:06.706Z,1026.17
2019-04-14T11:03:07.253Z,1026.16
2019-04-14T11:07:06.716Z,1026.09
2019-04-14T11:12:07.174Z,1026.06
2019-04-14T11:17:06.492Z,1026.08
2019-04-14T11:22:06.768Z,1026.04
2019-04-14T11:27:07.030Z,1026.01
2019-04-14T11:32:06.553Z,1025.97
2019-04-14T11:36:07.669Z,1025.98
2019-04-14T11:37:06.300Z,1025.98
2019-04-14T11:41:07.357Z,1025.83
2019-04-14T11:46:07.239Z,1025.84
2019-04-14T11:51:06.525Z,1025.86
2019-04-14T11:56:06.827Z,1025.86
2019-04-14T12:01:06.537Z,1025.98
2019-04-14T12:06:07.835Z,1025.98
2019-04-14T12:11:06.470Z,1025.94
2019-04-14T12:15:08.606Z,1025.91
2019-04-14T12:20:06.880Z,1025.75
2019-04-14T12:25:07.343Z,1025.83
2019-04-14T12:30:08.706Z,1025.79
2019-04-14T12:35:07.530Z,1025.84
2019-04-14T12:40:08.117Z,1025.78
2019-04-14T12:44:07.763Z,1025.76
2019-04-14T12:49:06.763Z,1025.62
2019-04-14T12:54:06.258Z,1025.65
2019-04-14T12:59:06.066Z,1025.56
2019-04-14T13:04:07.037Z,1025.5
2019-04-14T13:09:08.003Z,1025.45
2019-04-14T13:14:06.971Z,1025.45
2019-04-14T13:19:06.767Z,1025.45
2019-04-14T13:24:06.756Z,1025.58
2019-04-14T13:28:06.840Z,1025.61
2019-04-14T13:33:06.376Z,1025.54
2019-04-14T13:38:06.901Z,1025.6
2019-04-14T13:43:07.019Z,1025.58
2019-04-14T13:48:07.392Z,1025.65
2019-04-14T13:52:06.604Z,1025.66
2019-04-14T13:53:06.563Z,1025.66
2019-04-14T13:57:06.651Z,1025.71
2019-04-14T14:02:06.632Z,1025.73
2019-04-14T14:07:07.189Z,1025.71
2019-04-14T14:12:06.541Z,1025.68
2019-04-14T14:17:06.784Z,1025.69
2019-04-14T14:22:06.805Z,1025.7
2019-04-14T14:26:06.997Z,1025.69
2019-04-14T14:27:06.608Z,1025.69
2019-04-14T14:31:06.600Z,1025.65
2019-04-14T14:36:06.434Z,1025.62
2019-04-14T14:41:06.844Z,1025.56
2019-04-14T14:46:07.053Z,1025.63
2019-04-14T14:51:06.945Z,1025.63
2019-04-14T14:56:07.570Z,1025.64
2019-04-14T15:01:06.587Z,1025.66
2019-04-14T15:05:06.597Z,1025.57
2019-04-14T15:10:07.196Z,1025.57
2019-04-14T15:15:09.226Z,1025.55
2019-04-14T15:20:07.022Z,1025.55
2019-04-14T15:25:07.683Z,1025.51
2019-04-14T15:30:08.250Z,1025.65
2019-04-14T15:35:07.794Z,1025.66
2019-04-14T15:40:06.600Z,1025.59
2019-04-14T15:44:06.089Z,1025.6
2019-04-14T15:49:07.373Z,1025.59
2019-04-14T15:54:06.214Z,1025.61
2019-04-14T15:59:07.527Z,1025.58
2019-04-14T16:04:07.359Z,1025.63
2019-04-14T16:09:07.034Z,1025.68
2019-04-14T16:13:07.572Z,1025.53
2019-04-14T16:14:07.052Z,1025.53
2019-04-14T16:18:08.216Z,1025.58
2019-04-14T16:23:06.519Z,1025.61
2019-04-14T16:28:06.937Z,1025.62
2019-04-14T16:33:06.236Z,1025.71
2019-04-14T16:38:07.019Z,1025.65
2019-04-14T16:43:06.599Z,1025.78
2019-04-14T16:48:07.295Z,1025.77
2019-04-14T16:52:07.345Z,1025.76
2019-04-14T16:57:08.025Z,1025.85
2019-04-14T17:02:10.954Z,1025.85
2019-04-14T17:07:07.897Z,1025.88
2019-04-14T17:12:07.065Z,1025.93
2019-04-14T17:17:07.307Z,1025.96
2019-04-14T17:22:08.030Z,1026.02
2019-04-14T17:26:07.657Z,1026.03
2019-04-14T17:31:07.190Z,1026.03
2019-04-14T17:36:06.147Z,1026.05
2019-04-14T17:41:09.375Z,1026.14
2019-04-14T17:46:06.599Z,1026.17
2019-04-14T17:51:07.085Z,1026.21
2019-04-14T17:56:08.326Z,1026.25
2019-04-14T18:00:08.541Z,1026.3
2019-04-14T18:05:07.528Z,1026.34
2019-04-14T18:10:07.455Z,1026.43
2019-04-14T18:15:11.600Z,1026.5
2019-04-14T18:20:07.240Z,1026.48
2019-04-14T18:25:09.140Z,1026.55
2019-04-14T18:29:07.017Z,1026.66
2019-04-14T18:34:07.871Z,1026.71
2019-04-14T18:39:06.961Z,1026.77
2019-04-14T18:44:07.666Z,1026.74
2019-04-14T18:49:06.840Z,1026.79
2019-04-14T18:54:07.293Z,1026.83
2019-04-14T18:59:06.557Z,1026.91
2019-04-14T19:04:07.207Z,1026.9
2019-04-14T19:08:06.900Z,1027.02
2019-04-14T19:13:09.651Z,1027.01
2019-04-14T19:18:06.915Z,1027.03
2019-04-14T19:23:07.907Z,1027.1
2019-04-14T19:28:06.906Z,1027.14
2019-04-14T19:33:06.918Z,1027.13
2019-04-14T19:38:07.500Z,1027.24
2019-04-14T19:42:06.846Z,1027.26
2019-04-14T19:43:06.824Z,1027.26
2019-04-14T19:47:07.476Z,1027.26
2019-04-14T19:52:07.132Z,1027.38
2019-04-14T19:57:07.418Z,1027.35
2019-04-14T20:02:07.302Z,1027.34
2019-04-14T20:07:07.169Z,1027.41
2019-04-14T20:12:07.813Z,1027.37
2019-04-14T20:17:06.741Z,1027.38
2019-04-14T20:22:06.915Z,1027.38
2019-04-14T20:26:06.064Z,1027.49
2019-04-14T20:31:06.806Z,1027.58
2019-04-14T20:36:07.023Z,1027.52
2019-04-14T20:41:06.524Z,1027.58
2019-04-14T20:46:06.417Z,1027.64
2019-04-14T20:51:06.672Z,1027.71
2019-04-14T20:56:06.927Z,1027.73
2019-04-14T21:00:09.034Z,1027.81
2019-04-14T21:01:07.036Z,1027.81
2019-04-14T21:05:06.413Z,1027.79
2019-04-14T21:10:06.912Z,1027.83
2019-04-14T21:15:08.278Z,1027.9
2019-04-14T21:20:06.347Z,1027.87
2019-04-14T21:25:06.582Z,1027.9
2019-04-14T21:30:08.243Z,1027.93
2019-04-14T21:34:07.734Z,1027.88
2019-04-14T21:35:06.414Z,1027.88
2019-04-14T21:39:07.596Z,1027.91
2019-04-14T21:44:06.712Z,1027.95
2019-04-14T21:49:06.825Z,1028.01
2019-04-14T21:54:07.079Z,1027.99
2019-04-14T21:59:07.348Z,1028.08
2019-04-14T22:04:07.061Z,1028.08
2019-04-14T22:08:06.798Z,1028.17
2019-04-14T22:13:05.931Z,1028.16
2019-04-14T22:18:06.815Z,1028.22
2019-04-14T22:23:06.074Z,1028.2
2019-04-14T22:28:06.247Z,1028.25
2019-04-14T22:33:06.273Z,1028.34
2019-04-14T22:38:06.456Z,1028.33
2019-04-14T22:43:06.102Z,1028.46
2019-04-14T22:47:06.082Z,1028.55
2019-04-14T22:52:06.333Z,1028.52
2019-04-14T22:57:06.637Z,1028.54
2019-04-14T23:02:06.646Z,1028.59
2019-04-14T23:07:05.987Z,1028.68
2019-04-14T23:12:06.687Z,1028.59
2019-04-14T23:17:06.516Z,1028.64
2019-04-14T23:22:06.824Z,1028.67
2019-04-14T23:26:06.391Z,1028.67
2019-04-14T23:27:06.322Z,1028.67
2019-04-14T23:31:06.812Z,1028.61
2019-04-14T23:36:06.066Z,1028.66
2019-04-14T23:41:06.823Z,1028.66
2019-04-14T23:46:06.006Z,1028.63
2019-04-14T23:51:06.215Z,1028.67
2019-04-14T23:56:06.448Z,1028.67
